sensor_id;sensor_type;location;lat;lon;timestamp;pressure;altitude;pressure_sealevel;temperature;humidity
42067;BME280;27734;47.028;28.820;2023-06-14T00:02:19;100222.65;;;17.01;77.81
42067;BME280;27734;47.028;28.820;2023-06-14T00:04:50;100226.21;;;17.02;77.45
42067;BME280;27734;47.028;28.820;2023-06-14T00:07:35;100229.73;;;17.02;78.00
42067;BME280;27734;47.028;28.820;2023-06-14T00:10:09;100225.30;;;17.00;78.11
42067;BME280;27734;47.028;28.820;2023-06-14T00:12:41;100219.99;;;17.00;78.21
42067;BME280;27734;47.028;28.820;2023-06-14T00:15:12;100222.64;;;17.00;77.76
42067;BME280;27734;47.028;28.820;2023-06-14T00:17:43;100220.91;;;17.02;78.31
42067;BME280;27734;47.028;28.820;2023-06-14T00:20:17;100218.27;;;17.05;77.90
42067;BME280;27734;47.028;28.820;2023-06-14T00:22:48;100221.81;;;17.09;78.35
42067;BME280;27734;47.028;28.820;2023-06-14T00:25:20;100215.64;;;17.10;78.37
42067;BME280;27734;47.028;28.820;2023-06-14T00:27:51;100212.09;;;17.12;78.42
42067;BME280;27734;47.028;28.820;2023-06-14T00:30:22;100213.01;;;17.13;78.54
42067;BME280;27734;47.028;28.820;2023-06-14T00:32:54;100214.75;;;17.14;78.40
42067;BME280;27734;47.028;28.820;2023-06-14T00:35:25;100206.80;;;17.12;78.66
42067;BME280;27734;47.028;28.820;2023-06-14T00:37:56;100205.92;;;17.12;78.44
42067;BME280;27734;47.028;28.820;2023-06-14T00:40:27;100210.34;;;17.11;78.85
42067;BME280;27734;47.028;28.820;2023-06-14T00:42:59;100203.27;;;17.10;78.96
42067;BME280;27734;47.028;28.820;2023-06-14T00:45:30;100215.66;;;17.11;78.64
42067;BME280;27734;47.028;28.820;2023-06-14T00:48:06;100202.41;;;17.13;78.62
42067;BME280;27734;47.028;28.820;2023-06-14T00:50:39;100206.80;;;17.12;79.02
42067;BME280;27734;47.028;28.820;2023-06-14T00:53:12;100202.39;;;17.11;78.87
42067;BME280;27734;47.028;28.820;2023-06-14T00:55:45;100207.70;;;17.13;78.99
42067;BME280;27734;47.028;28.820;2023-06-14T00:58:17;100203.27;;;17.12;79.10
42067;BME280;27734;47.028;28.820;2023-06-14T01:00:48;100202.39;;;17.11;78.84
42067;BME280;27734;47.028;28.820;2023-06-14T01:03:20;100201.50;;;17.12;79.38
42067;BME280;27734;47.028;28.820;2023-06-14T01:05:56;100192.66;;;17.10;79.49
42067;BME280;27734;47.028;28.820;2023-06-14T01:08:39;100192.66;;;17.10;79.55
42067;BME280;27734;47.028;28.820;2023-06-14T01:11:16;100191.80;;;17.11;79.38
42067;BME280;27734;47.028;28.820;2023-06-14T01:13:51;100186.50;;;17.13;79.39
42067;BME280;27734;47.028;28.820;2023-06-14T01:16:25;100184.73;;;17.15;79.30
42067;BME280;27734;47.028;28.820;2023-06-14T01:18:57;100183.86;;;17.14;79.35
42067;BME280;27734;47.028;28.820;2023-06-14T01:21:31;100189.16;;;17.14;79.28
42067;BME280;27734;47.028;28.820;2023-06-14T01:24:11;100184.72;;;17.13;79.48
42067;BME280;27734;47.028;28.820;2023-06-14T01:26:43;100184.72;;;17.13;79.47
42067;BME280;27734;47.028;28.820;2023-06-14T01:29:16;100182.07;;;17.13;79.83
42067;BME280;27734;47.028;28.820;2023-06-14T01:31:49;100185.59;;;17.14;79.58
42067;BME280;27734;47.028;28.820;2023-06-14T01:34:21;100191.80;;;17.14;79.70
42067;BME280;27734;47.028;28.820;2023-06-14T01:36:55;100195.33;;;17.15;79.57
42067;BME280;27734;47.028;28.820;2023-06-14T01:39:26;100206.81;;;17.15;79.91
42067;BME280;27734;47.028;28.820;2023-06-14T01:41:59;100201.51;;;17.15;79.71
42067;BME280;27734;47.028;28.820;2023-06-14T01:44:31;100201.51;;;17.15;79.70
42067;BME280;27734;47.028;28.820;2023-06-14T01:47:03;100204.16;;;17.14;79.76
42067;BME280;27734;47.028;28.820;2023-06-14T01:49:36;100209.46;;;17.15;79.67
42067;BME280;27734;47.028;28.820;2023-06-14T01:52:08;100212.12;;;17.17;79.94
42067;BME280;27734;47.028;28.820;2023-06-14T01:54:40;100209.46;;;17.15;79.84
42067;BME280;27734;47.028;28.820;2023-06-14T01:57:11;100211.23;;;17.15;80.33
42067;BME280;27734;47.028;28.820;2023-06-14T01:59:43;100205.93;;;17.13;80.18
42067;BME280;27734;47.028;28.820;2023-06-14T02:02:18;100218.30;;;17.11;80.44
42067;BME280;27734;47.028;28.820;2023-06-14T02:04:49;100216.52;;;17.10;80.56
42067;BME280;27734;47.028;28.820;2023-06-14T02:07:20;100212.99;;;17.10;80.40
42067;BME280;27734;47.028;28.820;2023-06-14T02:09:51;100211.21;;;17.09;80.84
42067;BME280;27734;47.028;28.820;2023-06-14T02:12:23;100209.44;;;17.09;80.72
42067;BME280;27734;47.028;28.820;2023-06-14T02:14:54;100212.09;;;17.09;80.58
42067;BME280;27734;47.028;28.820;2023-06-14T02:17:26;100213.84;;;17.05;81.09
42067;BME280;27734;47.028;28.820;2023-06-14T02:19:58;100214.69;;;17.00;80.97
42067;BME280;27734;47.028;28.820;2023-06-14T02:22:30;100206.70;;;16.94;81.56
42067;BME280;27734;47.028;28.820;2023-06-14T02:25:02;100215.55;;;16.89;81.33
42067;BME280;27734;47.028;28.820;2023-06-14T02:27:34;100213.70;;;16.85;81.95
42067;BME280;27734;47.028;28.820;2023-06-14T02:30:09;100223.41;;;16.80;82.17
42067;BME280;27734;47.028;28.820;2023-06-14T02:32:40;100221.59;;;16.75;81.68
42067;BME280;27734;47.028;28.820;2023-06-14T02:35:12;100220.71;;;16.73;82.28
42067;BME280;27734;47.028;28.820;2023-06-14T02:37:44;100233.08;;;16.72;82.86
42067;BME280;27734;47.028;28.820;2023-06-14T02:40:15;100231.29;;;16.69;82.42
42067;BME280;27734;47.028;28.820;2023-06-14T02:42:46;100225.09;;;16.66;82.44
42067;BME280;27734;47.028;28.820;2023-06-14T02:45:18;100228.62;;;16.66;82.58
42067;BME280;27734;47.028;28.820;2023-06-14T02:47:51;100225.96;;;16.65;82.57
42067;BME280;27734;47.028;28.820;2023-06-14T02:50:22;100231.26;;;16.65;83.08
42067;BME280;27734;47.028;28.820;2023-06-14T02:52:53;100230.36;;;16.61;83.69
42067;BME280;27734;47.028;28.820;2023-06-14T02:55:26;100225.91;;;16.57;83.75
42067;BME280;27734;47.028;28.820;2023-06-14T02:57:57;100229.41;;;16.54;83.46
42067;BME280;27734;47.028;28.820;2023-06-14T03:00:29;100231.18;;;16.54;84.33
42067;BME280;27734;47.028;28.820;2023-06-14T03:03:00;100232.05;;;16.54;84.64
42067;BME280;27734;47.028;28.820;2023-06-14T03:05:32;100241.74;;;16.49;84.25
42067;BME280;27734;47.028;28.820;2023-06-14T03:08:04;100239.06;;;16.45;84.35
42067;BME280;27734;47.028;28.820;2023-06-14T03:10:35;100248.73;;;16.40;84.58
42067;BME280;27734;47.028;28.820;2023-06-14T03:13:09;100242.48;;;16.33;85.63
42067;BME280;27734;47.028;28.820;2023-06-14T03:15:42;100233.62;;;16.26;85.50
42067;BME280;27734;47.028;28.820;2023-06-14T03:18:15;100238.01;;;16.23;85.15
42067;BME280;27734;47.028;28.820;2023-06-14T03:20:46;100242.40;;;16.19;85.74
42067;BME280;27734;47.028;28.820;2023-06-14T03:23:17;100242.39;;;16.17;85.70
42067;BME280;27734;47.028;28.820;2023-06-14T03:25:49;100245.00;;;16.14;86.29
42067;BME280;27734;47.028;28.820;2023-06-14T03:28:21;100250.27;;;16.11;86.45
42067;BME280;27734;47.028;28.820;2023-06-14T03:30:52;100253.78;;;16.10;86.45
42067;BME280;27734;47.028;28.820;2023-06-14T03:33:25;100251.13;;;16.09;86.71
42067;BME280;27734;47.028;28.820;2023-06-14T03:35:56;100253.75;;;16.07;86.58
42067;BME280;27734;47.028;28.820;2023-06-14T03:38:28;100249.31;;;16.06;87.13
42067;BME280;27734;47.028;28.820;2023-06-14T03:40:59;100256.38;;;16.06;86.93
42067;BME280;27734;47.028;28.820;2023-06-14T03:43:30;100251.94;;;16.03;86.93
42067;BME280;27734;47.028;28.820;2023-06-14T03:46:03;100257.20;;;16.00;87.65
42067;BME280;27734;47.028;28.820;2023-06-14T03:48:36;100250.16;;;15.99;87.52
42067;BME280;27734;47.028;28.820;2023-06-14T03:51:08;100258.05;;;15.94;87.44
42067;BME280;27734;47.028;28.820;2023-06-14T03:53:41;100257.09;;;15.89;88.00
42067;BME280;27734;47.028;28.820;2023-06-14T03:56:12;100263.24;;;15.85;88.60
42067;BME280;27734;47.028;28.820;2023-06-14T03:58:46;100261.44;;;15.83;89.04
42067;BME280;27734;47.028;28.820;2023-06-14T04:01:17;100260.55;;;15.80;89.94
42067;BME280;27734;47.028;28.820;2023-06-14T04:03:48;100263.21;;;15.82;89.37
42067;BME280;27734;47.028;28.820;2023-06-14T04:06:20;100260.58;;;15.84;90.34
42067;BME280;27734;47.028;28.820;2023-06-14T04:08:52;100259.69;;;15.85;91.15
42067;BME280;27734;47.028;28.820;2023-06-14T04:11:23;100254.38;;;15.83;91.25
42067;BME280;27734;47.028;28.820;2023-06-14T04:13:56;100264.13;;;15.86;92.76
42067;BME280;27734;47.028;28.820;2023-06-14T04:16:27;100266.80;;;15.89;92.84
42067;BME280;27734;47.028;28.820;2023-06-14T04:18:59;100261.50;;;15.89;93.28
42067;BME280;27734;47.028;28.820;2023-06-14T04:21:31;100263.28;;;15.88;94.07
42067;BME280;27734;47.028;28.820;2023-06-14T04:24:06;100264.16;;;15.89;94.36
42067;BME280;27734;47.028;28.820;2023-06-14T04:26:45;100260.66;;;15.91;94.62
42067;BME280;27734;47.028;28.820;2023-06-14T04:29:19;100262.43;;;15.94;95.03
42067;BME280;27734;47.028;28.820;2023-06-14T04:31:59;100262.43;;;15.94;96.36
42067;BME280;27734;47.028;28.820;2023-06-14T04:34:31;100262.46;;;15.97;95.66
42067;BME280;27734;47.028;28.820;2023-06-14T04:37:20;100265.17;;;16.03;95.91
42067;BME280;27734;47.028;28.820;2023-06-14T04:39:52;100266.09;;;16.05;95.94
42067;BME280;27734;47.028;28.820;2023-06-14T04:42:23;100260.81;;;16.07;95.85
42067;BME280;27734;47.028;28.820;2023-06-14T04:45:00;100265.24;;;16.11;95.67
42067;BME280;27734;47.028;28.820;2023-06-14T04:47:31;100271.45;;;16.11;96.63
42067;BME280;27734;47.028;28.820;2023-06-14T04:50:05;100264.39;;;16.13;96.96
42067;BME280;27734;47.028;28.820;2023-06-14T04:52:36;100269.70;;;16.15;95.86
42067;BME280;27734;47.028;28.820;2023-06-14T04:55:09;100269.72;;;16.16;95.98
42067;BME280;27734;47.028;28.820;2023-06-14T04:57:41;100266.20;;;16.16;96.19
42067;BME280;27734;47.028;28.820;2023-06-14T05:00:13;100276.81;;;16.19;97.04
42067;BME280;27734;47.028;28.820;2023-06-14T05:02:46;100279.46;;;16.19;97.06
42067;BME280;27734;47.028;28.820;2023-06-14T05:05:19;100278.58;;;16.22;97.49
42067;BME280;27734;47.028;28.820;2023-06-14T05:07:50;100281.23;;;16.22;97.71
42067;BME280;27734;47.028;28.820;2023-06-14T05:10:22;100278.58;;;16.22;97.99
42067;BME280;27734;47.028;28.820;2023-06-14T05:12:54;100278.58;;;16.22;98.11
42067;BME280;27734;47.028;28.820;2023-06-14T05:15:26;100273.31;;;16.25;97.79
42067;BME280;27734;47.028;28.820;2023-06-14T05:17:58;100277.77;;;16.27;99.18
42067;BME280;27734;47.028;28.820;2023-06-14T05:20:30;100292.80;;;16.30;98.62
42067;BME280;27734;47.028;28.820;2023-06-14T05:23:01;100286.62;;;16.32;98.73
42067;BME280;27734;47.028;28.820;2023-06-14T05:25:32;100288.41;;;16.33;98.63
42067;BME280;27734;47.028;28.820;2023-06-14T05:28:04;100286.66;;;16.37;98.90
42067;BME280;27734;47.028;28.820;2023-06-14T05:30:35;100294.64;;;16.42;98.44
42067;BME280;27734;47.028;28.820;2023-06-14T05:33:07;100292.88;;;16.42;98.23
42067;BME280;27734;47.028;28.820;2023-06-14T05:35:39;100290.23;;;16.44;98.56
42067;BME280;27734;47.028;28.820;2023-06-14T05:38:10;100285.91;;;16.50;98.50
42067;BME280;27734;47.028;28.820;2023-06-14T05:40:41;100294.77;;;16.56;99.33
42067;BME280;27734;47.028;28.820;2023-06-14T05:43:12;100297.44;;;16.59;98.76
42067;BME280;27734;47.028;28.820;2023-06-14T05:45:44;100293.94;;;16.61;99.20
42067;BME280;27734;47.028;28.820;2023-06-14T05:48:15;100303.67;;;16.67;98.72
42067;BME280;27734;47.028;28.820;2023-06-14T05:50:46;100302.83;;;16.71;99.10
42067;BME280;27734;47.028;28.820;2023-06-14T05:53:18;100293.12;;;16.75;99.38
42067;BME280;27734;47.028;28.820;2023-06-14T05:55:50;100290.50;;;16.78;99.69
42067;BME280;27734;47.028;28.820;2023-06-14T05:58:22;100294.92;;;16.77;100.00
42067;BME280;27734;47.028;28.820;2023-06-14T06:00:53;100298.46;;;16.79;99.43
42067;BME280;27734;47.028;28.820;2023-06-14T06:03:26;100300.23;;;16.79;99.96
42067;BME280;27734;47.028;28.820;2023-06-14T06:05:59;100302.05;;;16.83;99.72
42067;BME280;27734;47.028;28.820;2023-06-14T06:08:34;100298.51;;;16.85;99.98
42067;BME280;27734;47.028;28.820;2023-06-14T06:11:13;100307.38;;;16.87;100.00
42067;BME280;27734;47.028;28.820;2023-06-14T06:13:48;100298.56;;;16.88;100.00
42067;BME280;27734;47.028;28.820;2023-06-14T06:16:19;100307.40;;;16.91;100.00
42067;BME280;27734;47.028;28.820;2023-06-14T06:18:52;100305.67;;;16.93;100.00
42067;BME280;27734;47.028;28.820;2023-06-14T06:21:27;100312.73;;;16.97;100.00
42067;BME280;27734;47.028;28.820;2023-06-14T06:24:01;100316.31;;;16.99;100.00
42067;BME280;27734;47.028;28.820;2023-06-14T06:26:35;100306.59;;;17.01;100.00
42067;BME280;27734;47.028;28.820;2023-06-14T06:29:06;100306.58;;;16.99;100.00
42067;BME280;27734;47.028;28.820;2023-06-14T06:31:38;100308.36;;;16.99;100.00
42067;BME280;27734;47.028;28.820;2023-06-14T06:34:20;100306.58;;;16.99;100.00
42067;BME280;27734;47.028;28.820;2023-06-14T06:37:08;100308.37;;;17.00;100.00
42067;BME280;27734;47.028;28.820;2023-06-14T06:39:48;100311.01;;;16.99;100.00
42067;BME280;27734;47.028;28.820;2023-06-14T06:42:36;100311.01;;;16.99;100.00
42067;BME280;27734;47.028;28.820;2023-06-14T06:45:12;100307.46;;;17.00;100.00
42067;BME280;27734;47.028;28.820;2023-06-14T06:47:43;100309.22;;;16.98;100.00
42067;BME280;27734;47.028;28.820;2023-06-14T06:50:22;100310.98;;;16.96;100.00
42067;BME280;27734;47.028;28.820;2023-06-14T06:53:03;100307.40;;;16.91;100.00
42067;BME280;27734;47.028;28.820;2023-06-14T06:55:39;100304.75;;;16.91;100.00
42067;BME280;27734;47.028;28.820;2023-06-14T06:58:30;100303.03;;;16.94;100.00
42067;BME280;27734;47.028;28.820;2023-06-14T07:01:22;100301.32;;;17.05;100.00
42067;BME280;27734;47.028;28.820;2023-06-14T07:03:55;100308.47;;;17.17;100.00
42067;BME280;27734;47.028;28.820;2023-06-14T07:06:30;100299.66;;;17.26;100.00
42067;BME280;27734;47.028;28.820;2023-06-14T07:09:04;100303.25;;;17.39;100.00
42067;BME280;27734;47.028;28.820;2023-06-14T07:11:36;100301.57;;;17.53;100.00
42067;BME280;27734;47.028;28.820;2023-06-14T07:14:09;100306.02;;;17.67;100.00
42067;BME280;27734;47.028;28.820;2023-06-14T07:16:41;100313.14;;;17.74;100.00
42067;BME280;27734;47.028;28.820;2023-06-14T07:19:13;100319.34;;;17.79;100.00
42067;BME280;27734;47.028;28.820;2023-06-14T07:21:44;100314.95;;;17.84;100.00
42067;BME280;27734;47.028;28.820;2023-06-14T07:24:16;100322.94;;;17.93;100.00
42067;BME280;27734;47.028;28.820;2023-06-14T07:26:50;100319.45;;;18.07;100.00
42067;BME280;27734;47.028;28.820;2023-06-14T07:29:21;100323.00;;;18.18;100.00
42067;BME280;27734;47.028;28.820;2023-06-14T07:31:58;100315.05;;;18.32;100.00
42067;BME280;27734;47.028;28.820;2023-06-14T07:34:29;100311.53;;;18.41;100.00
42067;BME280;27734;47.028;28.820;2023-06-14T07:37:01;100306.22;;;18.55;100.00
42067;BME280;27734;47.028;28.820;2023-06-14T07:39:32;100312.41;;;18.64;100.00
42067;BME280;27734;47.028;28.820;2023-06-14T07:42:08;100314.20;;;18.75;100.00
42067;BME280;27734;47.028;28.820;2023-06-14T07:44:41;100303.58;;;18.87;100.00
42067;BME280;27734;47.028;28.820;2023-06-14T07:47:13;100312.41;;;19.03;100.00
42067;BME280;27734;47.028;28.820;2023-06-14T07:49:45;100312.38;;;19.15;100.00
42067;BME280;27734;47.028;28.820;2023-06-14T07:52:18;100315.02;;;19.23;100.00
42067;BME280;27734;47.028;28.820;2023-06-14T07:55:07;100310.59;;;19.20;100.00
42067;BME280;27734;47.028;28.820;2023-06-14T07:57:39;100307.91;;;19.30;100.00
42067;BME280;27734;47.028;28.820;2023-06-14T08:00:13;100309.65;;;19.42;100.00
42067;BME280;27734;47.028;28.820;2023-06-14T08:02:46;100312.30;;;19.45;100.00
42067;BME280;27734;47.028;28.820;2023-06-14T08:05:17;100307.84;;;19.47;100.00
42067;BME280;27734;47.028;28.820;2023-06-14T08:07:58;100306.92;;;19.51;100.00
42067;BME280;27734;47.028;28.820;2023-06-14T08:10:34;100306.89;;;19.58;100.00
42067;BME280;27734;47.028;28.820;2023-06-14T08:13:06;100307.78;;;19.62;100.00
42067;BME280;27734;47.028;28.820;2023-06-14T08:15:39;100309.52;;;19.66;100.00
42067;BME280;27734;47.028;28.820;2023-06-14T08:18:16;100298.86;;;19.69;100.00
42067;BME280;27734;47.028;28.820;2023-06-14T08:20:55;100315.72;;;19.81;100.00
42067;BME280;27734;47.028;28.820;2023-06-14T08:23:28;100312.04;;;20.00;100.00
42067;BME280;27734;47.028;28.820;2023-06-14T08:26:01;100315.50;;;20.13;100.00
42067;BME280;27734;47.028;28.820;2023-06-14T08:28:35;100311.89;;;20.23;100.00
42067;BME280;27734;47.028;28.820;2023-06-14T08:31:08;100313.59;;;20.37;100.00
42067;BME280;27734;47.028;28.820;2023-06-14T08:33:39;100317.06;;;20.46;100.00
42067;BME280;27734;47.028;28.820;2023-06-14T08:36:15;100314.33;;;20.56;100.00
42067;BME280;27734;47.028;28.820;2023-06-14T08:38:48;100315.09;;;20.73;100.00
42067;BME280;27734;47.028;28.820;2023-06-14T08:41:23;100314.09;;;20.87;100.00
42067;BME280;27734;47.028;28.820;2023-06-14T08:43:58;100310.41;;;20.97;100.00
42067;BME280;27734;47.028;28.820;2023-06-14T08:46:35;100317.34;;;21.16;100.00
42067;BME280;27734;47.028;28.820;2023-06-14T08:49:12;100315.42;;;21.28;100.00
42067;BME280;27734;47.028;28.820;2023-06-14T08:51:55;100317.05;;;21.43;100.00
42067;BME280;27734;47.028;28.820;2023-06-14T08:54:36;100313.24;;;21.64;99.80
42067;BME280;27734;47.028;28.820;2023-06-14T08:57:15;100311.31;;;21.75;100.00
42067;BME280;27734;47.028;28.820;2023-06-14T08:59:57;100311.31;;;21.75;100.00
42067;BME280;27734;47.028;28.820;2023-06-14T09:02:35;100316.59;;;21.80;99.63
42067;BME280;27734;47.028;28.820;2023-06-14T09:05:09;100311.14;;;21.87;99.51
42067;BME280;27734;47.028;28.820;2023-06-14T09:07:43;100308.39;;;21.94;98.53
42067;BME280;27734;47.028;28.820;2023-06-14T09:10:20;100310.06;;;22.02;98.69
42067;BME280;27734;47.028;28.820;2023-06-14T09:12:52;100303.61;;;22.16;99.17
42067;BME280;27734;47.028;28.820;2023-06-14T09:15:29;100307.89;;;22.28;96.94
42067;BME280;27734;47.028;28.820;2023-06-14T09:18:02;100305.20;;;22.31;97.67
42067;BME280;27734;47.028;28.820;2023-06-14T09:20:35;100300.59;;;22.40;96.29
42067;BME280;27734;47.028;28.820;2023-06-14T09:23:11;100305.76;;;22.51;97.27
42067;BME280;27734;47.028;28.820;2023-06-14T09:25:47;100299.20;;;22.71;96.48
42067;BME280;27734;47.028;28.820;2023-06-14T09:28:28;100299.61;;;22.97;96.89
42067;BME280;27734;47.028;28.820;2023-06-14T09:31:08;100293.24;;;23.05;95.68
42067;BME280;27734;47.028;28.820;2023-06-14T09:33:39;100303.80;;;23.14;95.08
42067;BME280;27734;47.028;28.820;2023-06-14T09:36:26;100294.84;;;23.15;94.55
42067;BME280;27734;47.028;28.820;2023-06-14T09:39:00;100289.38;;;23.21;95.17
42067;BME280;27734;47.028;28.820;2023-06-14T09:41:41;100291.06;;;23.27;93.50
42067;BME280;27734;47.028;28.820;2023-06-14T09:44:17;100289.48;;;23.15;94.47
42067;BME280;27734;47.028;28.820;2023-06-14T09:46:52;100303.86;;;23.11;94.05
42067;BME280;27734;47.028;28.820;2023-06-14T09:49:24;100295.87;;;23.09;92.93
42067;BME280;27734;47.028;28.820;2023-06-14T09:52:07;100293.97;;;23.14;92.22
42067;BME280;27734;47.028;28.820;2023-06-14T09:54:47;100288.62;;;23.14;93.47
42067;BME280;27734;47.028;28.820;2023-06-14T09:57:23;100292.14;;;23.17;93.28
42067;BME280;27734;47.028;28.820;2023-06-14T09:59:59;100286.75;;;23.18;93.60
42067;BME280;27734;47.028;28.820;2023-06-14T10:02:44;100286.55;;;23.29;91.68
42067;BME280;27734;47.028;28.820;2023-06-14T10:05:21;100284.52;;;23.40;92.96
42067;BME280;27734;47.028;28.820;2023-06-14T10:07:59;100281.75;;;23.45;92.22
42067;BME280;27734;47.028;28.820;2023-06-14T10:10:32;100281.48;;;23.57;92.34
42067;BME280;27734;47.028;28.820;2023-06-14T10:13:04;100275.03;;;23.67;92.59
42067;BME280;27734;47.028;28.820;2023-06-14T10:15:43;100270.31;;;23.79;90.90
42067;BME280;27734;47.028;28.820;2023-06-14T10:18:22;100273.72;;;23.87;88.44
42067;BME280;27734;47.028;28.820;2023-06-14T10:21:08;100279.84;;;23.94;85.00
42067;BME280;27734;47.028;28.820;2023-06-14T10:23:47;100274.92;;;24.13;85.47
42067;BME280;27734;47.028;28.820;2023-06-14T10:26:23;100268.55;;;24.18;83.54
42067;BME280;27734;47.028;28.820;2023-06-14T10:29:01;100261.00;;;24.34;83.19
42067;BME280;27734;47.028;28.820;2023-06-14T10:31:44;100256.23;;;24.46;82.64
42067;BME280;27734;47.028;28.820;2023-06-14T10:34:26;100272.09;;;24.55;80.00
42067;BME280;27734;47.028;28.820;2023-06-14T10:37:05;100268.58;;;24.53;79.37
42067;BME280;27734;47.028;28.820;2023-06-14T10:39:44;100272.96;;;24.57;78.57
42067;BME280;27734;47.028;28.820;2023-06-14T10:42:15;100264.80;;;24.62;77.25
42067;BME280;27734;47.028;28.820;2023-06-14T10:44:52;100267.12;;;24.75;77.63
42067;BME280;27734;47.028;28.820;2023-06-14T10:47:29;100281.16;;;24.85;77.28
42067;BME280;27734;47.028;28.820;2023-06-14T10:50:09;100277.44;;;24.91;77.07
42067;BME280;27734;47.028;28.820;2023-06-14T10:52:43;100276.11;;;25.07;76.77
42067;BME280;27734;47.028;28.820;2023-06-14T10:55:15;100281.18;;;25.18;75.04
42067;BME280;27734;47.028;28.820;2023-06-14T10:57:55;100270.44;;;25.18;74.52
42067;BME280;27734;47.028;28.820;2023-06-14T11:00:27;100278.54;;;25.17;73.28
42067;BME280;27734;47.028;28.820;2023-06-14T11:03:43;100270.48;;;25.17;72.90
42067;BME280;27734;47.028;28.820;2023-06-14T11:06:30;100278.02;;;25.35;74.18
42067;BME280;27734;47.028;28.820;2023-06-14T11:09:51;100280.48;;;25.43;72.12
42067;BME280;27734;47.028;28.820;2023-06-14T11:12:32;100275.52;;;25.60;71.36
42067;BME280;27734;47.028;28.820;2023-06-14T11:15:09;100276.92;;;25.72;71.38
42067;BME280;27734;47.028;28.820;2023-06-14T11:17:51;100273.00;;;25.84;71.13
42067;BME280;27734;47.028;28.820;2023-06-14T11:20:26;100276.92;;;26.02;71.69
42067;BME280;27734;47.028;28.820;2023-06-14T11:23:07;100281.39;;;26.03;69.92
42067;BME280;27734;47.028;28.820;2023-06-14T11:25:49;100273.42;;;26.00;69.19
42067;BME280;27734;47.028;28.820;2023-06-14T11:28:38;100282.20;;;26.05;66.96
42067;BME280;27734;47.028;28.820;2023-06-14T11:31:11;100269.81;;;26.01;66.35
42067;BME280;27734;47.028;28.820;2023-06-14T11:33:42;100277.92;;;25.99;66.42
42067;BME280;27734;47.028;28.820;2023-06-14T11:36:15;100273.84;;;26.14;65.98
42067;BME280;27734;47.028;28.820;2023-06-14T11:38:46;100262.54;;;26.31;65.72
42067;BME280;27734;47.028;28.820;2023-06-14T11:41:18;100269.48;;;26.39;64.76
42067;BME280;27734;47.028;28.820;2023-06-14T11:43:49;100264.77;;;26.45;64.56
42067;BME280;27734;47.028;28.820;2023-06-14T11:46:23;100262.38;;;26.63;64.76
42067;BME280;27734;47.028;28.820;2023-06-14T11:48:57;100268.16;;;26.79;61.95
42067;BME280;27734;47.028;28.820;2023-06-14T11:51:28;100270.80;;;26.80;62.87
42067;BME280;27734;47.028;28.820;2023-06-14T11:54:02;100259.89;;;26.57;62.70
42067;BME280;27734;47.028;28.820;2023-06-14T11:56:44;100257.72;;;26.41;61.86
42067;BME280;27734;47.028;28.820;2023-06-14T11:59:16;100264.66;;;26.48;61.91
42067;BME280;27734;47.028;28.820;2023-06-14T12:01:49;100251.31;;;26.45;61.95
42067;BME280;27734;47.028;28.820;2023-06-14T12:04:27;100261.57;;;26.34;61.54
42067;BME280;27734;47.028;28.820;2023-06-14T12:07:10;100261.92;;;26.23;60.78
42067;BME280;27734;47.028;28.820;2023-06-14T12:10:05;100250.30;;;26.23;60.98
42067;BME280;27734;47.028;28.820;2023-06-14T12:12:39;100249.55;;;26.44;60.55
42067;BME280;27734;47.028;28.820;2023-06-14T12:15:15;100246.86;;;26.44;59.94
42067;BME280;27734;47.028;28.820;2023-06-14T12:17:47;100246.14;;;26.39;60.17
42067;BME280;27734;47.028;28.820;2023-06-14T12:20:20;100249.25;;;26.27;59.43
42067;BME280;27734;47.028;28.820;2023-06-14T12:22:55;100245.84;;;26.22;59.77
42067;BME280;27734;47.028;28.820;2023-06-14T12:25:30;100246.14;;;26.12;58.79
42067;BME280;27734;47.028;28.820;2023-06-14T12:28:05;100249.59;;;26.16;58.71
42067;BME280;27734;47.028;28.820;2023-06-14T12:30:40;100239.69;;;26.18;58.42
42067;BME280;27734;47.028;28.820;2023-06-14T12:33:11;100251.31;;;26.18;58.29
42067;BME280;27734;47.028;28.820;2023-06-14T12:35:45;100245.42;;;26.07;58.15
42067;BME280;27734;47.028;28.820;2023-06-14T12:38:22;100251.00;;;26.01;58.85
42067;BME280;27734;47.028;28.820;2023-06-14T12:40:54;100254.14;;;25.86;58.46
42067;BME280;27734;47.028;28.820;2023-06-14T12:43:25;100251.64;;;25.79;58.50
42067;BME280;27734;47.028;28.820;2023-06-14T12:45:57;100252.65;;;25.75;58.48
42067;BME280;27734;47.028;28.820;2023-06-14T12:51:15;100243.91;;;25.69;58.13
42067;BME280;27734;47.028;28.820;2023-06-14T12:53:47;100252.65;;;25.75;57.67
42067;BME280;27734;47.028;28.820;2023-06-14T12:56:19;100254.28;;;25.81;58.22
42067;BME280;27734;47.028;28.820;2023-06-14T12:58:53;100246.02;;;25.87;57.16
42067;BME280;27734;47.028;28.820;2023-06-14T13:01:25;100241.20;;;25.98;57.64
42067;BME280;27734;47.028;28.820;2023-06-14T13:04:06;100244.37;;;26.11;57.17
42067;BME280;27734;47.028;28.820;2023-06-14T13:06:42;100242.53;;;26.13;57.42
42067;BME280;27734;47.028;28.820;2023-06-14T13:09:15;100238.89;;;26.14;57.01
42067;BME280;27734;47.028;28.820;2023-06-14T13:11:46;100235.08;;;26.22;57.40
42067;BME280;27734;47.028;28.820;2023-06-14T13:14:20;100234.02;;;26.27;56.81
42067;BME280;27734;47.028;28.820;2023-06-14T13:16:52;100231.98;;;26.34;56.78
42067;BME280;27734;47.028;28.820;2023-06-14T13:19:25;100238.48;;;26.27;56.60